sensor_id;sensor_type;location;lat;lon;timestamp;P1;durP1;ratioP1;P2;durP2;ratioP2
13989;SDS011;7069;52.528;13.316;2022-08-30T00:00:59;2.15;;;1.45;;
13989;SDS011;7069;52.528;13.316;2022-08-30T00:03:29;2.35;;;2.10;;
13989;SDS011;7069;52.528;13.316;2022-08-30T00:05:56;2.33;;;1.80;;
13989;SDS011;7069;52.528;13.316;2022-08-30T00:08:22;2.58;;;2.38;;
13989;SDS011;7069;52.528;13.316;2022-08-30T00:10:49;2.05;;;1.95;;
13989;SDS011;7069;52.528;13.316;2022-08-30T00:13:17;2.10;;;1.95;;
13989;SDS011;7069;52.528;13.316;2022-08-30T00:15:44;2.20;;;2.10;;
13989;SDS011;7069;52.528;13.316;2022-08-30T00:18:11;2.95;;;1.92;;
13989;SDS011;7069;52.528;13.316;2022-08-30T00:20:39;2.25;;;2.15;;
13989;SDS011;7069;52.528;13.316;2022-08-30T00:23:06;3.15;;;2.58;;
13989;SDS011;7069;52.528;13.316;2022-08-30T00:25:33;3.15;;;2.85;;
13989;SDS011;7069;52.528;13.316;2022-08-30T00:27:59;3.10;;;2.78;;
13989;SDS011;7069;52.528;13.316;2022-08-30T00:30:27;2.63;;;2.42;;
13989;SDS011;7069;52.528;13.316;2022-08-30T00:32:54;3.08;;;2.78;;
13989;SDS011;7069;52.528;13.316;2022-08-30T00:35:20;2.40;;;2.20;;
13989;SDS011;7069;52.528;13.316;2022-08-30T00:37:47;1.92;;;1.83;;
13989;SDS011;7069;52.528;13.316;2022-08-30T00:40:15;2.70;;;2.50;;
13989;SDS011;7069;52.528;13.316;2022-08-30T00:42:41;2.20;;;2.05;;
13989;SDS011;7069;52.528;13.316;2022-08-30T00:45:10;2.70;;;2.50;;
13989;SDS011;7069;52.528;13.316;2022-08-30T00:47:39;3.30;;;2.45;;
13989;SDS011;7069;52.528;13.316;2022-08-30T00:50:05;2.80;;;2.60;;
13989;SDS011;7069;52.528;13.316;2022-08-30T00:52:32;2.50;;;2.30;;
13989;SDS011;7069;52.528;13.316;2022-08-30T00:55:00;2.92;;;2.72;;
13989;SDS011;7069;52.528;13.316;2022-08-30T00:57:27;2.58;;;2.38;;
13989;SDS011;7069;52.528;13.316;2022-08-30T00:59:53;5.05;;;2.63;;
13989;SDS011;7069;52.528;13.316;2022-08-30T01:02:20;2.42;;;2.22;;
13989;SDS011;7069;52.528;13.316;2022-08-30T01:04:48;3.50;;;3.20;;
13989;SDS011;7069;52.528;13.316;2022-08-30T01:07:16;2.65;;;2.45;;
13989;SDS011;7069;52.528;13.316;2022-08-30T01:09:42;2.58;;;2.40;;
13989;SDS011;7069;52.528;13.316;2022-08-30T01:12:08;2.90;;;2.70;;
13989;SDS011;7069;52.528;13.316;2022-08-30T01:14:35;3.20;;;2.90;;
13989;SDS011;7069;52.528;13.316;2022-08-30T01:17:03;3.38;;;3.08;;
13989;SDS011;7069;52.528;13.316;2022-08-30T01:19:31;2.15;;;2.03;;
13989;SDS011;7069;52.528;13.316;2022-08-30T01:22:02;2.72;;;2.53;;
13989;SDS011;7069;52.528;13.316;2022-08-30T01:24:30;4.25;;;2.78;;
13989;SDS011;7069;52.528;13.316;2022-08-30T01:26:58;4.88;;;2.90;;
13989;SDS011;7069;52.528;13.316;2022-08-30T01:29:25;3.15;;;2.95;;
13989;SDS011;7069;52.528;13.316;2022-08-30T01:31:52;2.95;;;2.70;;
13989;SDS011;7069;52.528;13.316;2022-08-30T01:34:18;3.38;;;3.08;;
13989;SDS011;7069;52.528;13.316;2022-08-30T01:36:45;3.08;;;2.78;;
13989;SDS011;7069;52.528;13.316;2022-08-30T01:39:13;3.38;;;3.10;;
13989;SDS011;7069;52.528;13.316;2022-08-30T01:41:41;3.10;;;2.90;;
13989;SDS011;7069;52.528;13.316;2022-08-30T01:44:08;3.47;;;3.28;;
13989;SDS011;7069;52.528;13.316;2022-08-30T01:46:36;3.58;;;3.30;;
13989;SDS011;7069;52.528;13.316;2022-08-30T01:49:04;3.40;;;3.10;;
13989;SDS011;7069;52.528;13.316;2022-08-30T01:51:31;4.40;;;4.05;;
13989;SDS011;7069;52.528;13.316;2022-08-30T01:53:57;3.58;;;3.33;;
13989;SDS011;7069;52.528;13.316;2022-08-30T01:56:24;3.70;;;3.40;;
13989;SDS011;7069;52.528;13.316;2022-08-30T01:58:52;3.75;;;3.45;;
13989;SDS011;7069;52.528;13.316;2022-08-30T02:01:19;4.05;;;3.70;;
13989;SDS011;7069;52.528;13.316;2022-08-30T02:03:47;3.92;;;3.53;;
13989;SDS011;7069;52.528;13.316;2022-08-30T02:06:14;3.80;;;3.50;;
13989;SDS011;7069;52.528;13.316;2022-08-30T02:08:41;3.92;;;3.47;;
13989;SDS011;7069;52.528;13.316;2022-08-30T02:11:08;3.83;;;3.53;;
13989;SDS011;7069;52.528;13.316;2022-08-30T02:13:34;3.47;;;3.13;;
13989;SDS011;7069;52.528;13.316;2022-08-30T02:16:02;4.22;;;3.92;;
13989;SDS011;7069;52.528;13.316;2022-08-30T02:18:31;4.00;;;3.70;;
13989;SDS011;7069;52.528;13.316;2022-08-30T02:20:58;4.53;;;4.13;;
13989;SDS011;7069;52.528;13.316;2022-08-30T02:23:25;4.07;;;3.78;;
13989;SDS011;7069;52.528;13.316;2022-08-30T02:25:51;4.40;;;4.00;;
13989;SDS011;7069;52.528;13.316;2022-08-30T02:28:17;4.00;;;3.70;;
13989;SDS011;7069;52.528;13.316;2022-08-30T02:30:44;4.03;;;3.72;;
13989;SDS011;7069;52.528;13.316;2022-08-30T02:33:12;5.15;;;4.75;;
13989;SDS011;7069;52.528;13.316;2022-08-30T02:35:38;4.20;;;3.88;;
13989;SDS011;7069;52.528;13.316;2022-08-30T02:38:04;5.15;;;4.75;;
13989;SDS011;7069;52.528;13.316;2022-08-30T02:40:31;4.75;;;4.35;;
13989;SDS011;7069;52.528;13.316;2022-08-30T02:42:57;5.65;;;5.10;;
13989;SDS011;7069;52.528;13.316;2022-08-30T02:45:24;5.25;;;4.72;;
13989;SDS011;7069;52.528;13.316;2022-08-30T02:47:50;4.72;;;4.32;;
13989;SDS011;7069;52.528;13.316;2022-08-30T02:50:18;4.88;;;4.47;;
13989;SDS011;7069;52.528;13.316;2022-08-30T02:52:44;4.72;;;4.32;;
13989;SDS011;7069;52.528;13.316;2022-08-30T02:55:11;4.50;;;4.13;;
13989;SDS011;7069;52.528;13.316;2022-08-30T02:57:37;5.00;;;4.60;;
13989;SDS011;7069;52.528;13.316;2022-08-30T03:00:04;5.05;;;4.55;;
13989;SDS011;7069;52.528;13.316;2022-08-30T03:02:35;4.65;;;4.35;;
13989;SDS011;7069;52.528;13.316;2022-08-30T03:05:01;4.90;;;4.40;;
13989;SDS011;7069;52.528;13.316;2022-08-30T03:07:29;4.40;;;4.03;;
13989;SDS011;7069;52.528;13.316;2022-08-30T03:09:56;5.10;;;4.40;;
13989;SDS011;7069;52.528;13.316;2022-08-30T03:12:22;4.50;;;4.10;;
13989;SDS011;7069;52.528;13.316;2022-08-30T03:14:49;4.80;;;4.40;;
13989;SDS011;7069;52.528;13.316;2022-08-30T03:17:15;5.15;;;4.65;;
13989;SDS011;7069;52.528;13.316;2022-08-30T03:19:42;5.13;;;4.63;;
13989;SDS011;7069;52.528;13.316;2022-08-30T03:22:09;4.82;;;4.43;;
13989;SDS011;7069;52.528;13.316;2022-08-30T03:24:37;5.30;;;4.88;;
13989;SDS011;7069;52.528;13.316;2022-08-30T03:27:03;5.28;;;4.88;;
13989;SDS011;7069;52.528;13.316;2022-08-30T03:29:29;5.25;;;4.85;;
13989;SDS011;7069;52.528;13.316;2022-08-30T03:31:56;6.60;;;4.78;;
13989;SDS011;7069;52.528;13.316;2022-08-30T03:34:22;4.88;;;4.47;;
13989;SDS011;7069;52.528;13.316;2022-08-30T03:36:49;5.47;;;4.97;;
13989;SDS011;7069;52.528;13.316;2022-08-30T03:39:15;4.38;;;4.05;;
13989;SDS011;7069;52.528;13.316;2022-08-30T03:41:43;5.13;;;4.55;;
13989;SDS011;7069;52.528;13.316;2022-08-30T03:44:09;5.13;;;4.65;;
13989;SDS011;7069;52.528;13.316;2022-08-30T03:46:36;5.85;;;5.20;;
13989;SDS011;7069;52.528;13.316;2022-08-30T03:49:03;5.05;;;4.63;;
13989;SDS011;7069;52.528;13.316;2022-08-30T03:51:29;4.55;;;4.15;;
13989;SDS011;7069;52.528;13.316;2022-08-30T03:53:56;5.22;;;4.82;;
13989;SDS011;7069;52.528;13.316;2022-08-30T03:56:22;5.22;;;4.72;;
13989;SDS011;7069;52.528;13.316;2022-08-30T03:58:50;5.18;;;4.78;;
13989;SDS011;7069;52.528;13.316;2022-08-30T04:01:16;5.20;;;4.80;;
13989;SDS011;7069;52.528;13.316;2022-08-30T04:03:42;5.55;;;5.05;;
13989;SDS011;7069;52.528;13.316;2022-08-30T04:06:09;5.35;;;4.70;;
13989;SDS011;7069;52.528;13.316;2022-08-30T04:08:35;5.00;;;4.60;;
13989;SDS011;7069;52.528;13.316;2022-08-30T04:11:02;4.65;;;4.35;;
13989;SDS011;7069;52.528;13.316;2022-08-30T04:13:29;4.57;;;4.18;;
13989;SDS011;7069;52.528;13.316;2022-08-30T04:15:57;4.97;;;4.57;;
13989;SDS011;7069;52.528;13.316;2022-08-30T04:18:23;4.82;;;4.40;;
13989;SDS011;7069;52.528;13.316;2022-08-30T04:20:50;4.63;;;4.22;;
13989;SDS011;7069;52.528;13.316;2022-08-30T04:23:16;5.38;;;3.92;;
13989;SDS011;7069;52.528;13.316;2022-08-30T04:25:43;4.35;;;4.00;;
13989;SDS011;7069;52.528;13.316;2022-08-30T04:28:09;4.55;;;4.15;;
13989;SDS011;7069;52.528;13.316;2022-08-30T04:30:37;5.05;;;4.65;;
13989;SDS011;7069;52.528;13.316;2022-08-30T04:33:05;3.83;;;3.53;;
13989;SDS011;7069;52.528;13.316;2022-08-30T04:35:31;4.30;;;3.90;;
13989;SDS011;7069;52.528;13.316;2022-08-30T04:37:58;4.10;;;3.80;;
13989;SDS011;7069;52.528;13.316;2022-08-30T04:40:24;4.55;;;3.90;;
13989;SDS011;7069;52.528;13.316;2022-08-30T04:42:50;4.55;;;4.25;;
13989;SDS011;7069;52.528;13.316;2022-08-30T04:45:18;4.13;;;3.83;;
13989;SDS011;7069;52.528;13.316;2022-08-30T04:47:45;4.15;;;3.75;;
13989;SDS011;7069;52.528;13.316;2022-08-30T04:50:14;4.25;;;3.88;;
13989;SDS011;7069;52.528;13.316;2022-08-30T04:52:41;4.47;;;4.18;;
13989;SDS011;7069;52.528;13.316;2022-08-30T04:55:08;4.35;;;4.05;;
13989;SDS011;7069;52.528;13.316;2022-08-30T04:57:34;3.58;;;3.28;;
13989;SDS011;7069;52.528;13.316;2022-08-30T05:00:02;4.00;;;3.70;;
13989;SDS011;7069;52.528;13.316;2022-08-30T05:02:29;4.15;;;3.75;;
13989;SDS011;7069;52.528;13.316;2022-08-30T05:04:55;4.43;;;4.07;;
13989;SDS011;7069;52.528;13.316;2022-08-30T05:07:40;4.25;;;3.88;;
13989;SDS011;7069;52.528;13.316;2022-08-30T05:10:07;5.07;;;4.35;;
13989;SDS011;7069;52.528;13.316;2022-08-30T05:12:33;4.00;;;3.70;;
13989;SDS011;7069;52.528;13.316;2022-08-30T05:14:59;4.07;;;3.78;;
13989;SDS011;7069;52.528;13.316;2022-08-30T05:17:26;4.00;;;3.70;;
13989;SDS011;7069;52.528;13.316;2022-08-30T05:19:52;4.03;;;3.72;;
13989;SDS011;7069;52.528;13.316;2022-08-30T05:22:18;5.75;;;4.38;;
13989;SDS011;7069;52.528;13.316;2022-08-30T05:24:46;4.30;;;4.00;;
13989;SDS011;7069;52.528;13.316;2022-08-30T05:27:13;4.38;;;3.97;;
13989;SDS011;7069;52.528;13.316;2022-08-30T05:29:39;4.55;;;4.15;;
13989;SDS011;7069;52.528;13.316;2022-08-30T05:32:07;3.97;;;3.67;;
13989;SDS011;7069;52.528;13.316;2022-08-30T05:34:33;3.97;;;3.67;;
13989;SDS011;7069;52.528;13.316;2022-08-30T05:36:59;4.55;;;4.07;;
13989;SDS011;7069;52.528;13.316;2022-08-30T05:39:26;4.55;;;4.20;;
13989;SDS011;7069;52.528;13.316;2022-08-30T05:41:55;4.45;;;4.05;;
13989;SDS011;7069;52.528;13.316;2022-08-30T05:44:22;3.55;;;3.35;;
13989;SDS011;7069;52.528;13.316;2022-08-30T05:46:48;5.85;;;4.50;;
13989;SDS011;7069;52.528;13.316;2022-08-30T05:49:15;5.65;;;5.03;;
13989;SDS011;7069;52.528;13.316;2022-08-30T05:51:41;4.68;;;4.28;;
13989;SDS011;7069;52.528;13.316;2022-08-30T05:54:07;5.47;;;4.95;;
13989;SDS011;7069;52.528;13.316;2022-08-30T05:56:34;5.78;;;5.28;;
13989;SDS011;7069;52.528;13.316;2022-08-30T05:59:03;5.20;;;4.80;;
13989;SDS011;7069;52.528;13.316;2022-08-30T06:01:31;5.45;;;4.95;;
13989;SDS011;7069;52.528;13.316;2022-08-30T06:03:58;5.80;;;5.20;;
13989;SDS011;7069;52.528;13.316;2022-08-30T06:06:25;6.40;;;5.07;;
13989;SDS011;7069;52.528;13.316;2022-08-30T06:08:52;5.20;;;4.70;;
13989;SDS011;7069;52.528;13.316;2022-08-30T06:11:19;5.18;;;4.75;;
13989;SDS011;7069;52.528;13.316;2022-08-30T06:13:46;4.82;;;4.43;;
13989;SDS011;7069;52.528;13.316;2022-08-30T06:16:16;5.68;;;5.05;;
13989;SDS011;7069;52.528;13.316;2022-08-30T06:18:43;5.20;;;4.70;;
13989;SDS011;7069;52.528;13.316;2022-08-30T06:21:14;6.38;;;5.32;;
13989;SDS011;7069;52.528;13.316;2022-08-30T06:23:40;5.97;;;4.65;;
13989;SDS011;7069;52.528;13.316;2022-08-30T06:26:06;5.47;;;4.57;;
13989;SDS011;7069;52.528;13.316;2022-08-30T06:28:34;5.88;;;5.35;;
13989;SDS011;7069;52.528;13.316;2022-08-30T06:31:00;6.30;;;5.78;;
13989;SDS011;7069;52.528;13.316;2022-08-30T06:33:28;6.28;;;5.25;;
13989;SDS011;7069;52.528;13.316;2022-08-30T06:35:54;6.68;;;5.30;;
13989;SDS011;7069;52.528;13.316;2022-08-30T06:38:26;6.43;;;5.68;;
13989;SDS011;7069;52.528;13.316;2022-08-30T06:40:52;7.80;;;5.30;;
13989;SDS011;7069;52.528;13.316;2022-08-30T06:43:19;6.20;;;5.63;;
13989;SDS011;7069;52.528;13.316;2022-08-30T06:45:45;6.25;;;5.75;;
13989;SDS011;7069;52.528;13.316;2022-08-30T06:48:11;13.43;;;6.88;;
13989;SDS011;7069;52.528;13.316;2022-08-30T06:50:39;6.97;;;6.38;;
13989;SDS011;7069;52.528;13.316;2022-08-30T06:53:07;6.03;;;5.53;;
13989;SDS011;7069;52.528;13.316;2022-08-30T06:55:33;6.13;;;5.30;;
13989;SDS011;7069;52.528;13.316;2022-08-30T06:57:59;7.03;;;6.43;;
13989;SDS011;7069;52.528;13.316;2022-08-30T07:00:26;10.02;;;6.90;;
13989;SDS011;7069;52.528;13.316;2022-08-30T07:02:53;6.50;;;5.90;;
13989;SDS011;7069;52.528;13.316;2022-08-30T07:05:19;8.48;;;6.63;;
13989;SDS011;7069;52.528;13.316;2022-08-30T07:07:49;6.45;;;5.85;;
13989;SDS011;7069;52.528;13.316;2022-08-30T07:10:17;6.43;;;5.82;;
13989;SDS011;7069;52.528;13.316;2022-08-30T07:12:43;6.57;;;5.72;;
13989;SDS011;7069;52.528;13.316;2022-08-30T07:15:10;8.85;;;6.03;;
13989;SDS011;7069;52.528;13.316;2022-08-30T07:17:36;5.28;;;4.88;;
13989;SDS011;7069;52.528;13.316;2022-08-30T07:20:20;7.35;;;6.57;;
13989;SDS011;7069;52.528;13.316;2022-08-30T07:22:46;6.80;;;6.20;;
13989;SDS011;7069;52.528;13.316;2022-08-30T07:25:14;7.22;;;6.53;;
13989;SDS011;7069;52.528;13.316;2022-08-30T07:27:41;6.90;;;6.30;;
13989;SDS011;7069;52.528;13.316;2022-08-30T07:30:07;6.78;;;6.18;;
13989;SDS011;7069;52.528;13.316;2022-08-30T07:32:34;10.07;;;7.13;;
13989;SDS011;7069;52.528;13.316;2022-08-30T07:35:02;10.68;;;8.10;;
13989;SDS011;7069;52.528;13.316;2022-08-30T07:37:29;9.75;;;8.75;;
13989;SDS011;7069;52.528;13.316;2022-08-30T07:39:55;8.45;;;7.75;;
13989;SDS011;7069;52.528;13.316;2022-08-30T07:42:23;9.23;;;8.27;;
13989;SDS011;7069;52.528;13.316;2022-08-30T07:44:49;7.10;;;6.50;;
13989;SDS011;7069;52.528;13.316;2022-08-30T07:47:15;10.10;;;9.10;;
13989;SDS011;7069;52.528;13.316;2022-08-30T07:49:42;8.73;;;7.75;;
13989;SDS011;7069;52.528;13.316;2022-08-30T07:52:08;8.75;;;8.02;;
13989;SDS011;7069;52.528;13.316;2022-08-30T07:54:35;9.50;;;8.60;;
13989;SDS011;7069;52.528;13.316;2022-08-30T07:57:01;9.80;;;8.90;;
13989;SDS011;7069;52.528;13.316;2022-08-30T07:59:29;8.30;;;7.63;;
13989;SDS011;7069;52.528;13.316;2022-08-30T08:01:56;8.85;;;8.05;;
13989;SDS011;7069;52.528;13.316;2022-08-30T08:04:22;7.50;;;6.82;;
13989;SDS011;7069;52.528;13.316;2022-08-30T08:06:48;7.97;;;7.22;;
13989;SDS011;7069;52.528;13.316;2022-08-30T08:09:14;7.80;;;7.20;;
13989;SDS011;7069;52.528;13.316;2022-08-30T08:11:42;6.88;;;6.22;;
13989;SDS011;7069;52.528;13.316;2022-08-30T08:14:08;6.65;;;6.07;;
13989;SDS011;7069;52.528;13.316;2022-08-30T08:16:36;6.75;;;6.18;;
13989;SDS011;7069;52.528;13.316;2022-08-30T08:19:03;7.03;;;6.43;;
13989;SDS011;7069;52.528;13.316;2022-08-30T08:21:33;6.38;;;5.78;;
13989;SDS011;7069;52.528;13.316;2022-08-30T08:23:59;6.43;;;5.82;;
13989;SDS011;7069;52.528;13.316;2022-08-30T08:26:26;8.48;;;6.40;;
13989;SDS011;7069;52.528;13.316;2022-08-30T08:28:52;5.85;;;5.35;;
13989;SDS011;7069;52.528;13.316;2022-08-30T08:31:19;5.20;;;4.57;;
13989;SDS011;7069;52.528;13.316;2022-08-30T08:33:48;5.93;;;5.28;;
13989;SDS011;7069;52.528;13.316;2022-08-30T08:36:14;5.47;;;5.07;;
13989;SDS011;7069;52.528;13.316;2022-08-30T08:38:42;4.78;;;4.47;;
13989;SDS011;7069;52.528;13.316;2022-08-30T08:41:10;4.68;;;4.28;;
13989;SDS011;7069;52.528;13.316;2022-08-30T08:43:38;4.35;;;4.05;;
13989;SDS011;7069;52.528;13.316;2022-08-30T08:46:05;3.90;;;3.67;;
13989;SDS011;7069;52.528;13.316;2022-08-30T08:48:34;4.40;;;3.72;;
13989;SDS011;7069;52.528;13.316;2022-08-30T08:51:08;4.43;;;4.13;;
13989;SDS011;7069;52.528;13.316;2022-08-30T08:53:54;4.95;;;3.88;;
13989;SDS011;7069;52.528;13.316;2022-08-30T08:56:23;3.33;;;3.13;;
13989;SDS011;7069;52.528;13.316;2022-08-30T08:58:50;3.80;;;3.50;;
13989;SDS011;7069;52.528;13.316;2022-08-30T09:01:17;3.70;;;3.40;;
13989;SDS011;7069;52.528;13.316;2022-08-30T09:03:44;4.60;;;4.25;;
13989;SDS011;7069;52.528;13.316;2022-08-30T09:06:19;5.18;;;4.78;;
13989;SDS011;7069;52.528;13.316;2022-08-30T09:08:46;4.00;;;3.70;;
13989;SDS011;7069;52.528;13.316;2022-08-30T09:11:15;4.78;;;3.50;;
13989;SDS011;7069;52.528;13.316;2022-08-30T09:13:45;4.78;;;3.30;;
13989;SDS011;7069;52.528;13.316;2022-08-30T09:16:11;2.83;;;2.63;;
13989;SDS011;7069;52.528;13.316;2022-08-30T09:18:57;3.10;;;2.72;;
13989;SDS011;7069;52.528;13.316;2022-08-30T09:21:25;2.35;;;2.15;;
13989;SDS011;7069;52.528;13.316;2022-08-30T09:23:54;3.70;;;1.70;;
13989;SDS011;7069;52.528;13.316;2022-08-30T09:26:27;2.85;;;1.77;;
13989;SDS011;7069;52.528;13.316;2022-08-30T09:28:54;2.63;;;1.20;;
13989;SDS011;7069;52.528;13.316;2022-08-30T09:31:24;1.40;;;1.30;;
13989;SDS011;7069;52.528;13.316;2022-08-30T09:33:53;1.45;;;1.35;;
13989;SDS011;7069;52.528;13.316;2022-08-30T09:36:21;2.00;;;1.42;;
13989;SDS011;7069;52.528;13.316;2022-08-30T09:38:56;1.45;;;1.35;;
13989;SDS011;7069;52.528;13.316;2022-08-30T09:41:26;2.10;;;1.10;;
13989;SDS011;7069;52.528;13.316;2022-08-30T09:44:04;1.35;;;1.25;;
13989;SDS011;7069;52.528;13.316;2022-08-30T09:46:31;1.63;;;1.52;;
13989;SDS011;7069;52.528;13.316;2022-08-30T09:48:57;1.30;;;1.20;;
13989;SDS011;7069;52.528;13.316;2022-08-30T09:54:14;1.17;;;1.08;;
13989;SDS011;7069;52.528;13.316;2022-08-30T09:56:47;0.80;;;0.80;;
13989;SDS011;7069;52.528;13.316;2022-08-30T09:59:22;1.00;;;0.95;;
13989;SDS011;7069;52.528;13.316;2022-08-30T10:01:52;1.02;;;1.02;;
13989;SDS011;7069;52.528;13.316;2022-08-30T10:04:26;4.22;;;1.33;;
13989;SDS011;7069;52.528;13.316;2022-08-30T10:06:56;1.35;;;1.25;;
13989;SDS011;7069;52.528;13.316;2022-08-30T10:09:29;1.88;;;0.77;;
13989;SDS011;7069;52.528;13.316;2022-08-30T10:12:01;1.40;;;1.30;;
13989;SDS011;7069;52.528;13.316;2022-08-30T10:14:32;1.40;;;1.30;;
13989;SDS011;7069;52.528;13.316;2022-08-30T10:17:03;0.95;;;0.95;;
13989;SDS011;7069;52.528;13.316;2022-08-30T10:19:36;1.33;;;1.23;;
13989;SDS011;7069;52.528;13.316;2022-08-30T10:22:07;1.25;;;1.05;;
13989;SDS011;7069;52.528;13.316;2022-08-30T10:24:38;1.10;;;1.10;;
13989;SDS011;7069;52.528;13.316;2022-08-30T10:27:07;2.08;;;1.08;;
13989;SDS011;7069;52.528;13.316;2022-08-30T10:29:36;1.20;;;0.85;;
13989;SDS011;7069;52.528;13.316;2022-08-30T10:32:05;0.70;;;0.70;;
13989;SDS011;7069;52.528;13.316;2022-08-30T10:34:36;0.82;;;0.82;;
13989;SDS011;7069;52.528;13.316;2022-08-30T10:37:06;1.17;;;1.08;;
13989;SDS011;7069;52.528;13.316;2022-08-30T10:39:35;1.15;;;1.05;;
13989;SDS011;7069;52.528;13.316;2022-08-30T10:42:05;1.23;;;1.15;;
13989;SDS011;7069;52.528;13.316;2022-08-30T10:44:35;1.08;;;0.98;;
13989;SDS011;7069;52.528;13.316;2022-08-30T10:47:05;1.20;;;1.10;;
13989;SDS011;7069;52.528;13.316;2022-08-30T10:49:34;2.72;;;1.17;;
13989;SDS011;7069;52.528;13.316;2022-08-30T10:52:05;1.13;;;1.02;;
13989;SDS011;7069;52.528;13.316;2022-08-30T10:54:33;1.10;;;1.00;;
13989;SDS011;7069;52.528;13.316;2022-08-30T10:57:01;1.00;;;1.00;;
13989;SDS011;7069;52.528;13.316;2022-08-30T10:59:29;1.00;;;1.00;;
13989;SDS011;7069;52.528;13.316;2022-08-30T11:02:05;1.25;;;0.70;;
13989;SDS011;7069;52.528;13.316;2022-08-30T11:04:49;0.50;;;0.50;;
13989;SDS011;7069;52.528;13.316;2022-08-30T11:07:21;1.42;;;0.60;;
13989;SDS011;7069;52.528;13.316;2022-08-30T11:09:57;1.38;;;1.00;;
13989;SDS011;7069;52.528;13.316;2022-08-30T11:12:30;1.30;;;0.75;;
13989;SDS011;7069;52.528;13.316;2022-08-30T11:14:59;1.13;;;0.88;;
13989;SDS011;7069;52.528;13.316;2022-08-30T11:17:27;0.80;;;0.80;;
13989;SDS011;7069;52.528;13.316;2022-08-30T11:19:55;0.60;;;0.55;;
13989;SDS011;7069;52.528;13.316;2022-08-30T11:22:24;0.80;;;0.80;;
13989;SDS011;7069;52.528;13.316;2022-08-30T11:25:00;0.88;;;0.88;;
13989;SDS011;7069;52.528;13.316;2022-08-30T11:35:51;1.30;;;1.20;;
13989;SDS011;7069;52.528;13.316;2022-08-30T11:38:19;38.15;;;4.78;;
13989;SDS011;7069;52.528;13.316;2022-08-30T11:40:50;113.35;;;11.82;;
13989;SDS011;7069;52.528;13.316;2022-08-30T11:46:14;24.40;;;3.60;;
13989;SDS011;7069;52.528;13.316;2022-08-30T11:48:42;7.07;;;1.20;;
13989;SDS011;7069;52.528;13.316;2022-08-30T11:53:53;4.93;;;1.33;;
13989;SDS011;7069;52.528;13.316;2022-08-30T11:56:25;3.45;;;1.02;;
13989;SDS011;7069;52.528;13.316;2022-08-30T11:58:53;1.85;;;1.30;;
13989;SDS011;7069;52.528;13.316;2022-08-30T12:01:30;5.65;;;1.52;;
13989;SDS011;7069;52.528;13.316;2022-08-30T12:03:58;7.45;;;1.90;;
13989;SDS011;7069;52.528;13.316;2022-08-30T12:06:43;0.80;;;0.80;;
13989;SDS011;7069;52.528;13.316;2022-08-30T12:09:12;5.03;;;1.48;;
13989;SDS011;7069;52.528;13.316;2022-08-30T12:12:00;1.70;;;1.00;;
13989;SDS011;7069;52.528;13.316;2022-08-30T12:14:31;15.68;;;2.15;;
13989;SDS011;7069;52.528;13.316;2022-08-30T12:16:58;6.13;;;1.52;;
13989;SDS011;7069;52.528;13.316;2022-08-30T12:19:43;1.10;;;1.08;;
13989;SDS011;7069;52.528;13.316;2022-08-30T12:22:14;1.38;;;0.90;;
13989;SDS011;7069;52.528;13.316;2022-08-30T12:24:42;0.70;;;0.70;;
13989;SDS011;7069;52.528;13.316;2022-08-30T12:27:21;0.98;;;0.95;;
13989;SDS011;7069;52.528;13.316;2022-08-30T12:29:49;2.58;;;1.30;;
13989;SDS011;7069;52.528;13.316;2022-08-30T12:32:16;1.75;;;1.00;;
13989;SDS011;7069;52.528;13.316;2022-08-30T12:34:48;2.17;;;1.17;;
13989;SDS011;7069;52.528;13.316;2022-08-30T12:37:19;2.22;;;1.02;;
13989;SDS011;7069;52.528;13.316;2022-08-30T12:39:45;1.13;;;1.02;;
13989;SDS011;7069;52.528;13.316;2022-08-30T12:42:16;1.33;;;1.10;;
13989;SDS011;7069;52.528;13.316;2022-08-30T12:44:43;1.95;;;1.02;;
13989;SDS011;7069;52.528;13.316;2022-08-30T12:47:10;2.83;;;1.20;;
13989;SDS011;7069;52.528;13.316;2022-08-30T12:49:37;1.58;;;1.10;;
13989;SDS011;7069;52.528;13.316;2022-08-30T12:52:14;2.40;;;1.08;;
13989;SDS011;7069;52.528;13.316;2022-08-30T12:54:40;0.90;;;0.82;;
13989;SDS011;7069;52.528;13.316;2022-08-30T12:57:07;1.05;;;0.95;;
13989;SDS011;7069;52.528;13.316;2022-08-30T12:59:37;1.08;;;0.80;;
13989;SDS011;7069;52.528;13.316;2022-08-30T13:02:11;1.08;;;1.05;;
13989;SDS011;7069;52.528;13.316;2022-08-30T13:04:38;2.03;;;1.00;;
13989;SDS011;7069;52.528;13.316;2022-08-30T13:07:06;1.27;;;0.85;;
13989;SDS011;7069;52.528;13.316;2022-08-30T13:09:34;1.67;;;1.40;;
13989;SDS011;7069;52.528;13.316;2022-08-30T13:12:01;2.83;;;1.95;;
13989;SDS011;7069;52.528;13.316;2022-08-30T13:14:29;1.90;;;1.75;;
13989;SDS011;7069;52.528;13.316;2022-08-30T13:17:07;2.85;;;1.73;;
13989;SDS011;7069;52.528;13.316;2022-08-30T13:19:36;3.15;;;2.30;;
13989;SDS011;7069;52.528;13.316;2022-08-30T13:22:03;2.95;;;2.58;;
13989;SDS011;7069;52.528;13.316;2022-08-30T13:24:31;2.17;;;1.98;;
13989;SDS011;7069;52.528;13.316;2022-08-30T13:26:58;2.50;;;2.30;;
13989;SDS011;7069;52.528;13.316;2022-08-30T13:29:27;2.10;;;2.00;;
13989;SDS011;7069;52.528;13.316;2022-08-30T13:31:54;3.92;;;2.20;;
13989;SDS011;7069;52.528;13.316;2022-08-30T13:34:20;2.22;;;2.03;;
13989;SDS011;7069;52.528;13.316;2022-08-30T13:36:49;2.15;;;2.05;;
13989;SDS011;7069;52.528;13.316;2022-08-30T13:39:16;2.58;;;2.38;;
13989;SDS011;7069;52.528;13.316;2022-08-30T13:41:42;3.25;;;1.92;;
13989;SDS011;7069;52.528;13.316;2022-08-30T13:44:09;2.47;;;2.17;;
13989;SDS011;7069;52.528;13.316;2022-08-30T13:46:35;2.50;;;2.30;;
13989;SDS011;7069;52.528;13.316;2022-08-30T13:49:04;2.28;;;2.08;;
13989;SDS011;7069;52.528;13.316;2022-08-30T13:51:30;1.90;;;1.80;;
13989;SDS011;7069;52.528;13.316;2022-08-30T13:53:58;1.92;;;1.83;;
13989;SDS011;7069;52.528;13.316;2022-08-30T13:56:25;2.85;;;1.73;;
13989;SDS011;7069;52.528;13.316;2022-08-30T13:58:51;1.80;;;1.70;;
13989;SDS011;7069;52.528;13.316;2022-08-30T14:01:18;3.03;;;2.28;;
13989;SDS011;7069;52.528;13.316;2022-08-30T14:03:44;2.50;;;2.30;;
13989;SDS011;7069;52.528;13.316;2022-08-30T14:06:10;2.42;;;2.22;;
13989;SDS011;7069;52.528;13.316;2022-08-30T14:08:37;3.08;;;2.30;;
13989;SDS011;7069;52.528;13.316;2022-08-30T14:11:05;2.08;;;1.98;;
13989;SDS011;7069;52.528;13.316;2022-08-30T14:13:32;2.60;;;2.45;;
13989;SDS011;7069;52.528;13.316;2022-08-30T14:16:02;2.53;;;2.10;;
13989;SDS011;7069;52.528;13.316;2022-08-30T14:18:30;2.10;;;1.88;;
13989;SDS011;7069;52.528;13.316;2022-08-30T14:20:57;4.60;;;1.85;;
13989;SDS011;7069;52.528;13.316;2022-08-30T14:23:24;1.90;;;1.45;;
13989;SDS011;7069;52.528;13.316;2022-08-30T14:25:51;2.88;;;1.83;;
13989;SDS011;7069;52.528;13.316;2022-08-30T14:28:19;1.77;;;1.50;;
13989;SDS011;7069;52.528;13.316;2022-08-30T14:30:46;1.48;;;1.38;;
13989;SDS011;7069;52.528;13.316;2022-08-30T14:33:12;1.40;;;1.13;;
13989;SDS011;7069;52.528;13.316;2022-08-30T14:35:39;1.90;;;1.33;;
13989;SDS011;7069;52.528;13.316;2022-08-30T14:38:05;1.95;;;1.63;;
13989;SDS011;7069;52.528;13.316;2022-08-30T14:40:32;1.45;;;1.35;;
13989;SDS011;7069;52.528;13.316;2022-08-30T14:42:58;1.58;;;1.33;;
13989;SDS011;7069;52.528;13.316;2022-08-30T14:45:26;1.40;;;1.30;;
13989;SDS011;7069;52.528;13.316;2022-08-30T14:47:52;1.55;;;1.45;;
13989;SDS011;7069;52.528;13.316;2022-08-30T14:50:21;2.03;;;1.60;;
13989;SDS011;7069;52.528;13.316;2022-08-30T14:52:47;1.48;;;1.38;;
13989;SDS011;7069;52.528;13.316;2022-08-30T14:55:13;2.03;;;1.60;;
13989;SDS011;7069;52.528;13.316;2022-08-30T14:57:40;2.22;;;1.65;;
13989;SDS011;7069;52.528;13.316;2022-08-30T15:00:08;3.15;;;2.35;;
13989;SDS011;7069;52.528;13.316;2022-08-30T15:02:36;3.13;;;1.98;;
13989;SDS011;7069;52.528;13.316;2022-08-30T15:05:02;2.25;;;2.03;;
13989;SDS011;7069;52.528;13.316;2022-08-30T15:07:29;2.17;;;1.98;;
13989;SDS011;7069;52.528;13.316;2022-08-30T15:09:55;2.75;;;2.55;;